sensor_id;sensor_type;location;lat;lon;timestamp;temperature;humidity
43047;DHT22;28672;49.358;8.780;2022-11-15T00:01:22;6.50;99.90
43047;DHT22;28672;49.358;8.780;2022-11-15T00:03:51;6.50;99.90
43047;DHT22;28672;49.358;8.780;2022-11-15T00:06:17;6.50;99.90
43047;DHT22;28672;49.358;8.780;2022-11-15T00:08:42;6.50;99.90
43047;DHT22;28672;49.358;8.780;2022-11-15T00:11:10;6.40;99.90
43047;DHT22;28672;49.358;8.780;2022-11-15T00:13:37;6.40;99.90
43047;DHT22;28672;49.358;8.780;2022-11-15T00:16:02;6.50;99.90
43047;DHT22;28672;49.358;8.780;2022-11-15T00:18:29;6.60;99.90
43047;DHT22;28672;49.358;8.780;2022-11-15T00:20:55;6.60;99.90
43047;DHT22;28672;49.358;8.780;2022-11-15T00:23:21;6.70;99.90
43047;DHT22;28672;49.358;8.780;2022-11-15T00:25:46;6.70;99.90
43047;DHT22;28672;49.358;8.780;2022-11-15T00:28:12;6.80;99.90
43047;DHT22;28672;49.358;8.780;2022-11-15T00:30:37;6.80;99.90
43047;DHT22;28672;49.358;8.780;2022-11-15T00:33:04;6.80;99.90
43047;DHT22;28672;49.358;8.780;2022-11-15T00:35:33;6.80;99.90
43047;DHT22;28672;49.358;8.780;2022-11-15T00:38:00;6.80;99.90
43047;DHT22;28672;49.358;8.780;2022-11-15T00:40:26;6.80;99.90
43047;DHT22;28672;49.358;8.780;2022-11-15T00:42:52;6.80;99.90
43047;DHT22;28672;49.358;8.780;2022-11-15T00:45:17;6.80;99.90
43047;DHT22;28672;49.358;8.780;2022-11-15T00:47:46;6.70;99.90
43047;DHT22;28672;49.358;8.780;2022-11-15T00:50:12;6.80;99.90
43047;DHT22;28672;49.358;8.780;2022-11-15T00:52:38;6.80;99.90
43047;DHT22;28672;49.358;8.780;2022-11-15T00:55:04;6.90;99.90
43047;DHT22;28672;49.358;8.780;2022-11-15T00:57:30;6.80;99.90
43047;DHT22;28672;49.358;8.780;2022-11-15T00:59:55;6.90;99.90
43047;DHT22;28672;49.358;8.780;2022-11-15T01:02:21;6.90;99.90
43047;DHT22;28672;49.358;8.780;2022-11-15T01:04:47;6.90;99.90
43047;DHT22;28672;49.358;8.780;2022-11-15T01:07:13;6.90;99.90
43047;DHT22;28672;49.358;8.780;2022-11-15T01:09:38;6.90;99.90
43047;DHT22;28672;49.358;8.780;2022-11-15T01:12:04;6.80;99.90
43047;DHT22;28672;49.358;8.780;2022-11-15T01:14:30;6.80;99.90
43047;DHT22;28672;49.358;8.780;2022-11-15T01:16:56;6.70;99.90
43047;DHT22;28672;49.358;8.780;2022-11-15T01:19:21;6.60;99.90
43047;DHT22;28672;49.358;8.780;2022-11-15T01:21:50;6.60;99.90
43047;DHT22;28672;49.358;8.780;2022-11-15T01:24:16;6.60;99.90
43047;DHT22;28672;49.358;8.780;2022-11-15T01:26:42;6.60;99.90
43047;DHT22;28672;49.358;8.780;2022-11-15T01:29:07;6.50;99.90
43047;DHT22;28672;49.358;8.780;2022-11-15T01:31:33;6.50;99.90
43047;DHT22;28672;49.358;8.780;2022-11-15T01:33:58;6.50;99.90
43047;DHT22;28672;49.358;8.780;2022-11-15T01:36:24;6.50;99.90
43047;DHT22;28672;49.358;8.780;2022-11-15T01:38:54;6.60;99.90
43047;DHT22;28672;49.358;8.780;2022-11-15T01:41:23;6.60;99.90
43047;DHT22;28672;49.358;8.780;2022-11-15T01:43:52;6.70;99.90
43047;DHT22;28672;49.358;8.780;2022-11-15T01:48:47;6.80;99.90
43047;DHT22;28672;49.358;8.780;2022-11-15T01:51:15;6.80;99.90
43047;DHT22;28672;49.358;8.780;2022-11-15T01:53:45;6.80;99.90
43047;DHT22;28672;49.358;8.780;2022-11-15T01:56:15;6.80;99.90
43047;DHT22;28672;49.358;8.780;2022-11-15T01:58:42;6.80;99.90
43047;DHT22;28672;49.358;8.780;2022-11-15T02:01:09;6.80;99.90
43047;DHT22;28672;49.358;8.780;2022-11-15T02:03:45;6.80;99.90
43047;DHT22;28672;49.358;8.780;2022-11-15T02:06:14;6.80;99.90
43047;DHT22;28672;49.358;8.780;2022-11-15T02:08:40;6.70;99.90
43047;DHT22;28672;49.358;8.780;2022-11-15T02:11:09;6.70;99.90
43047;DHT22;28672;49.358;8.780;2022-11-15T02:13:36;6.70;99.90
43047;DHT22;28672;49.358;8.780;2022-11-15T02:16:13;6.70;99.90
43047;DHT22;28672;49.358;8.780;2022-11-15T02:29:59;6.50;99.90
43047;DHT22;28672;49.358;8.780;2022-11-15T02:32:52;6.40;99.90
43047;DHT22;28672;49.358;8.780;2022-11-15T02:35:37;6.40;99.90
43047;DHT22;28672;49.358;8.780;2022-11-15T02:38:20;6.50;99.90
43047;DHT22;28672;49.358;8.780;2022-11-15T02:40:57;6.50;99.90
43047;DHT22;28672;49.358;8.780;2022-11-15T02:43:56;6.60;99.90
43047;DHT22;28672;49.358;8.780;2022-11-15T02:46:35;6.60;99.90
43047;DHT22;28672;49.358;8.780;2022-11-15T02:49:21;6.60;99.90
43047;DHT22;28672;49.358;8.780;2022-11-15T02:51:49;6.60;99.90
43047;DHT22;28672;49.358;8.780;2022-11-15T02:54:22;6.60;99.90
43047;DHT22;28672;49.358;8.780;2022-11-15T02:56:49;6.60;99.90
43047;DHT22;28672;49.358;8.780;2022-11-15T03:05:03;6.60;99.90
43047;DHT22;28672;49.358;8.780;2022-11-15T03:07:50;6.50;99.90
43047;DHT22;28672;49.358;8.780;2022-11-15T03:10:24;6.50;99.90
43047;DHT22;28672;49.358;8.780;2022-11-15T03:12:56;6.40;99.90
43047;DHT22;28672;49.358;8.780;2022-11-15T03:15:37;6.50;99.90
43047;DHT22;28672;49.358;8.780;2022-11-15T03:18:21;6.50;99.90
43047;DHT22;28672;49.358;8.780;2022-11-15T03:20:50;6.50;99.90
43047;DHT22;28672;49.358;8.780;2022-11-15T03:23:17;6.50;99.90
43047;DHT22;28672;49.358;8.780;2022-11-15T03:25:48;6.50;99.90
43047;DHT22;28672;49.358;8.780;2022-11-15T03:28:20;6.60;99.90
43047;DHT22;28672;49.358;8.780;2022-11-15T03:30:49;6.60;99.90
43047;DHT22;28672;49.358;8.780;2022-11-15T03:33:16;6.60;99.90
43047;DHT22;28672;49.358;8.780;2022-11-15T03:35:44;6.60;99.90
43047;DHT22;28672;49.358;8.780;2022-11-15T03:38:26;6.50;99.90
43047;DHT22;28672;49.358;8.780;2022-11-15T03:46:01;6.60;99.90
43047;DHT22;28672;49.358;8.780;2022-11-15T03:48:35;6.50;99.90
43047;DHT22;28672;49.358;8.780;2022-11-15T03:51:03;6.50;99.90
43047;DHT22;28672;49.358;8.780;2022-11-15T03:53:29;6.50;99.90
43047;DHT22;28672;49.358;8.780;2022-11-15T03:55:56;6.60;99.90
43047;DHT22;28672;49.358;8.780;2022-11-15T03:58:21;6.60;99.90
43047;DHT22;28672;49.358;8.780;2022-11-15T04:00:47;6.60;99.90
43047;DHT22;28672;49.358;8.780;2022-11-15T04:03:12;6.70;99.90
43047;DHT22;28672;49.358;8.780;2022-11-15T04:05:38;6.70;99.90
43047;DHT22;28672;49.358;8.780;2022-11-15T04:08:03;6.70;99.90
43047;DHT22;28672;49.358;8.780;2022-11-15T04:10:29;6.80;99.90
43047;DHT22;28672;49.358;8.780;2022-11-15T04:12:54;6.80;99.90
43047;DHT22;28672;49.358;8.780;2022-11-15T04:15:22;6.80;99.90
43047;DHT22;28672;49.358;8.780;2022-11-15T04:17:50;6.70;99.90
43047;DHT22;28672;49.358;8.780;2022-11-15T04:20:22;6.80;99.90
43047;DHT22;28672;49.358;8.780;2022-11-15T04:23:10;6.80;99.90
43047;DHT22;28672;49.358;8.780;2022-11-15T04:25:56;6.80;99.90
43047;DHT22;28672;49.358;8.780;2022-11-15T04:28:23;6.80;99.90
43047;DHT22;28672;49.358;8.780;2022-11-15T04:30:49;6.80;99.90
43047;DHT22;28672;49.358;8.780;2022-11-15T04:33:15;6.80;99.90
43047;DHT22;28672;49.358;8.780;2022-11-15T04:35:41;6.90;99.90
43047;DHT22;28672;49.358;8.780;2022-11-15T04:38:09;6.90;99.90
43047;DHT22;28672;49.358;8.780;2022-11-15T04:40:36;7.00;99.90
43047;DHT22;28672;49.358;8.780;2022-11-15T04:43:02;7.00;99.90
43047;DHT22;28672;49.358;8.780;2022-11-15T04:45:28;7.00;99.90
43047;DHT22;28672;49.358;8.780;2022-11-15T04:47:53;7.00;99.90
43047;DHT22;28672;49.358;8.780;2022-11-15T04:50:19;7.10;99.90
43047;DHT22;28672;49.358;8.780;2022-11-15T04:52:51;7.10;99.90
43047;DHT22;28672;49.358;8.780;2022-11-15T04:55:17;7.10;99.90
43047;DHT22;28672;49.358;8.780;2022-11-15T04:57:43;7.20;99.90
43047;DHT22;28672;49.358;8.780;2022-11-15T05:00:12;7.10;99.90
43047;DHT22;28672;49.358;8.780;2022-11-15T05:02:38;7.10;99.90
43047;DHT22;28672;49.358;8.780;2022-11-15T05:05:23;7.10;99.90
43047;DHT22;28672;49.358;8.780;2022-11-15T05:07:48;7.10;99.90
43047;DHT22;28672;49.358;8.780;2022-11-15T05:10:14;7.10;99.90
43047;DHT22;28672;49.358;8.780;2022-11-15T05:12:39;7.10;99.90
43047;DHT22;28672;49.358;8.780;2022-11-15T05:15:06;7.10;99.90
43047;DHT22;28672;49.358;8.780;2022-11-15T05:17:31;7.10;99.90
43047;DHT22;28672;49.358;8.780;2022-11-15T05:19:57;7.10;99.90
43047;DHT22;28672;49.358;8.780;2022-11-15T05:22:22;7.10;99.90
43047;DHT22;28672;49.358;8.780;2022-11-15T05:24:48;7.20;99.90
43047;DHT22;28672;49.358;8.780;2022-11-15T05:27:14;7.10;99.90
43047;DHT22;28672;49.358;8.780;2022-11-15T05:29:39;7.10;99.90
43047;DHT22;28672;49.358;8.780;2022-11-15T05:32:06;7.10;99.90
43047;DHT22;28672;49.358;8.780;2022-11-15T05:34:31;7.20;99.90
43047;DHT22;28672;49.358;8.780;2022-11-15T05:36:57;7.20;99.90
43047;DHT22;28672;49.358;8.780;2022-11-15T05:39:24;7.20;99.90
43047;DHT22;28672;49.358;8.780;2022-11-15T05:41:54;7.30;99.90
43047;DHT22;28672;49.358;8.780;2022-11-15T05:44:22;7.30;99.90
43047;DHT22;28672;49.358;8.780;2022-11-15T05:46:49;7.30;99.90
43047;DHT22;28672;49.358;8.780;2022-11-15T05:49:19;7.30;99.90
43047;DHT22;28672;49.358;8.780;2022-11-15T05:51:46;7.30;99.90
43047;DHT22;28672;49.358;8.780;2022-11-15T05:54:14;7.30;99.90
43047;DHT22;28672;49.358;8.780;2022-11-15T05:56:40;7.30;99.90
43047;DHT22;28672;49.358;8.780;2022-11-15T05:59:07;7.30;99.90
43047;DHT22;28672;49.358;8.780;2022-11-15T06:01:33;7.30;99.90
43047;DHT22;28672;49.358;8.780;2022-11-15T06:03:59;7.30;99.90
43047;DHT22;28672;49.358;8.780;2022-11-15T06:06:24;7.30;99.90
43047;DHT22;28672;49.358;8.780;2022-11-15T06:08:50;7.30;99.90
43047;DHT22;28672;49.358;8.780;2022-11-15T06:11:15;7.30;99.90
43047;DHT22;28672;49.358;8.780;2022-11-15T06:13:41;7.30;99.90
43047;DHT22;28672;49.358;8.780;2022-11-15T06:16:07;7.30;99.90
43047;DHT22;28672;49.358;8.780;2022-11-15T06:18:33;7.40;99.90
43047;DHT22;28672;49.358;8.780;2022-11-15T06:21:00;7.50;99.90
43047;DHT22;28672;49.358;8.780;2022-11-15T06:23:25;7.50;99.90
43047;DHT22;28672;49.358;8.780;2022-11-15T06:25:51;7.50;99.90
43047;DHT22;28672;49.358;8.780;2022-11-15T06:28:16;7.50;99.90
43047;DHT22;28672;49.358;8.780;2022-11-15T06:30:42;7.50;99.90
43047;DHT22;28672;49.358;8.780;2022-11-15T06:33:08;7.50;99.90
43047;DHT22;28672;49.358;8.780;2022-11-15T06:35:35;7.50;99.90
43047;DHT22;28672;49.358;8.780;2022-11-15T06:38:08;7.50;99.90
43047;DHT22;28672;49.358;8.780;2022-11-15T06:40:35;7.40;99.90
43047;DHT22;28672;49.358;8.780;2022-11-15T06:43:02;7.40;99.90
43047;DHT22;28672;49.358;8.780;2022-11-15T06:45:28;7.30;99.90
43047;DHT22;28672;49.358;8.780;2022-11-15T06:47:53;7.30;99.90
43047;DHT22;28672;49.358;8.780;2022-11-15T06:50:19;7.20;99.90
43047;DHT22;28672;49.358;8.780;2022-11-15T06:52:45;7.20;99.90
43047;DHT22;28672;49.358;8.780;2022-11-15T06:55:10;7.20;99.90
43047;DHT22;28672;49.358;8.780;2022-11-15T06:57:36;7.20;99.90
43047;DHT22;28672;49.358;8.780;2022-11-15T07:00:05;7.20;99.90
43047;DHT22;28672;49.358;8.780;2022-11-15T07:02:31;7.20;99.90
43047;DHT22;28672;49.358;8.780;2022-11-15T07:04:57;7.30;99.90
43047;DHT22;28672;49.358;8.780;2022-11-15T07:07:22;7.30;99.90
43047;DHT22;28672;49.358;8.780;2022-11-15T07:09:48;7.40;99.90
43047;DHT22;28672;49.358;8.780;2022-11-15T07:12:13;7.40;99.90
43047;DHT22;28672;49.358;8.780;2022-11-15T07:14:39;7.50;99.90
43047;DHT22;28672;49.358;8.780;2022-11-15T07:17:05;7.50;99.90
43047;DHT22;28672;49.358;8.780;2022-11-15T07:19:31;7.60;99.90
43047;DHT22;28672;49.358;8.780;2022-11-15T07:21:56;7.70;99.90
43047;DHT22;28672;49.358;8.780;2022-11-15T07:24:22;7.80;99.90
43047;DHT22;28672;49.358;8.780;2022-11-15T07:26:48;7.80;99.90
43047;DHT22;28672;49.358;8.780;2022-11-15T07:29:13;8.00;99.90
43047;DHT22;28672;49.358;8.780;2022-11-15T07:31:39;8.00;99.90
43047;DHT22;28672;49.358;8.780;2022-11-15T07:34:05;8.10;99.90
43047;DHT22;28672;49.358;8.780;2022-11-15T07:36:30;8.20;99.90
43047;DHT22;28672;49.358;8.780;2022-11-15T07:38:56;8.30;99.90
43047;DHT22;28672;49.358;8.780;2022-11-15T07:41:21;8.30;99.90
43047;DHT22;28672;49.358;8.780;2022-11-15T07:43:47;8.30;99.90
43047;DHT22;28672;49.358;8.780;2022-11-15T07:46:16;8.30;99.90
43047;DHT22;28672;49.358;8.780;2022-11-15T07:48:41;8.40;99.90
43047;DHT22;28672;49.358;8.780;2022-11-15T07:51:09;8.40;99.90
43047;DHT22;28672;49.358;8.780;2022-11-15T07:53:35;8.50;99.90
43047;DHT22;28672;49.358;8.780;2022-11-15T07:56:01;8.60;99.90
43047;DHT22;28672;49.358;8.780;2022-11-15T07:58:26;8.60;99.90
43047;DHT22;28672;49.358;8.780;2022-11-15T08:00:52;8.70;99.90
43047;DHT22;28672;49.358;8.780;2022-11-15T08:03:17;8.70;99.90
43047;DHT22;28672;49.358;8.780;2022-11-15T08:05:43;8.80;99.90
43047;DHT22;28672;49.358;8.780;2022-11-15T08:08:15;8.90;99.90
43047;DHT22;28672;49.358;8.780;2022-11-15T08:10:40;9.00;99.90
43047;DHT22;28672;49.358;8.780;2022-11-15T08:13:08;9.00;99.90
43047;DHT22;28672;49.358;8.780;2022-11-15T08:15:35;9.00;99.90
43047;DHT22;28672;49.358;8.780;2022-11-15T08:18:04;9.10;99.90
43047;DHT22;28672;49.358;8.780;2022-11-15T08:20:30;9.10;99.90
43047;DHT22;28672;49.358;8.780;2022-11-15T08:23:00;9.10;99.90
43047;DHT22;28672;49.358;8.780;2022-11-15T08:25:27;9.20;99.90
43047;DHT22;28672;49.358;8.780;2022-11-15T08:27:58;9.20;99.90
43047;DHT22;28672;49.358;8.780;2022-11-15T08:30:25;9.20;99.90
43047;DHT22;28672;49.358;8.780;2022-11-15T08:32:52;9.30;99.90
43047;DHT22;28672;49.358;8.780;2022-11-15T08:35:19;9.30;99.90
43047;DHT22;28672;49.358;8.780;2022-11-15T08:37:45;9.40;99.90
43047;DHT22;28672;49.358;8.780;2022-11-15T08:40:10;9.40;99.90
43047;DHT22;28672;49.358;8.780;2022-11-15T08:42:36;9.50;99.90
43047;DHT22;28672;49.358;8.780;2022-11-15T08:45:03;9.50;99.90
43047;DHT22;28672;49.358;8.780;2022-11-15T08:47:29;9.60;99.90
43047;DHT22;28672;49.358;8.780;2022-11-15T08:49:54;9.70;99.90
43047;DHT22;28672;49.358;8.780;2022-11-15T08:52:20;9.70;99.90
43047;DHT22;28672;49.358;8.780;2022-11-15T08:54:46;9.70;99.90
43047;DHT22;28672;49.358;8.780;2022-11-15T08:57:12;9.90;99.90
43047;DHT22;28672;49.358;8.780;2022-11-15T08:59:37;9.80;99.90
43047;DHT22;28672;49.358;8.780;2022-11-15T09:02:03;9.90;99.90
43047;DHT22;28672;49.358;8.780;2022-11-15T09:04:29;9.80;99.90
43047;DHT22;28672;49.358;8.780;2022-11-15T09:06:55;9.90;99.90
43047;DHT22;28672;49.358;8.780;2022-11-15T09:09:21;9.90;99.90
43047;DHT22;28672;49.358;8.780;2022-11-15T09:11:46;10.00;99.90
43047;DHT22;28672;49.358;8.780;2022-11-15T09:14:13;9.90;99.90
43047;DHT22;28672;49.358;8.780;2022-11-15T09:16:39;10.00;99.90
43047;DHT22;28672;49.358;8.780;2022-11-15T09:19:05;9.90;99.90
43047;DHT22;28672;49.358;8.780;2022-11-15T09:21:31;10.00;99.90
43047;DHT22;28672;49.358;8.780;2022-11-15T09:23:57;10.20;99.90
43047;DHT22;28672;49.358;8.780;2022-11-15T09:26:22;10.20;99.90
43047;DHT22;28672;49.358;8.780;2022-11-15T09:28:48;10.30;99.90
43047;DHT22;28672;49.358;8.780;2022-11-15T09:31:14;10.40;99.90
43047;DHT22;28672;49.358;8.780;2022-11-15T09:33:43;10.40;99.90
43047;DHT22;28672;49.358;8.780;2022-11-15T09:36:09;10.50;99.90
43047;DHT22;28672;49.358;8.780;2022-11-15T09:38:35;10.60;99.90
43047;DHT22;28672;49.358;8.780;2022-11-15T09:44:06;10.80;99.90
43047;DHT22;28672;49.358;8.780;2022-11-15T09:49:15;10.90;99.90
43047;DHT22;28672;49.358;8.780;2022-11-15T09:51:44;10.90;99.90
43047;DHT22;28672;49.358;8.780;2022-11-15T09:54:33;11.00;99.90
43047;DHT22;28672;49.358;8.780;2022-11-15T09:57:38;11.00;99.90
43047;DHT22;28672;49.358;8.780;2022-11-15T10:05:25;11.30;99.90
43047;DHT22;28672;49.358;8.780;2022-11-15T10:10:47;11.30;99.90
43047;DHT22;28672;49.358;8.780;2022-11-15T10:13:19;11.40;99.90
43047;DHT22;28672;49.358;8.780;2022-11-15T10:15:49;11.40;99.90
43047;DHT22;28672;49.358;8.780;2022-11-15T10:18:19;11.50;99.90
43047;DHT22;28672;49.358;8.780;2022-11-15T10:20:59;11.60;99.90
43047;DHT22;28672;49.358;8.780;2022-11-15T10:23:28;11.70;99.90
43047;DHT22;28672;49.358;8.780;2022-11-15T10:25:57;11.70;99.90
43047;DHT22;28672;49.358;8.780;2022-11-15T10:28:27;11.80;99.90
43047;DHT22;28672;49.358;8.780;2022-11-15T10:30:58;12.00;99.90
43047;DHT22;28672;49.358;8.780;2022-11-15T10:33:38;12.00;99.90
43047;DHT22;28672;49.358;8.780;2022-11-15T10:36:24;12.10;99.90
43047;DHT22;28672;49.358;8.780;2022-11-15T10:41:17;12.20;99.90
43047;DHT22;28672;49.358;8.780;2022-11-15T10:43:44;12.20;99.90
43047;DHT22;28672;49.358;8.780;2022-11-15T10:46:23;12.30;99.90
43047;DHT22;28672;49.358;8.780;2022-11-15T10:48:49;12.40;99.90
43047;DHT22;28672;49.358;8.780;2022-11-15T10:51:43;12.40;99.90
43047;DHT22;28672;49.358;8.780;2022-11-15T10:54:12;12.40;99.90
43047;DHT22;28672;49.358;8.780;2022-11-15T10:56:39;12.40;99.90
43047;DHT22;28672;49.358;8.780;2022-11-15T10:59:05;12.30;99.90
43047;DHT22;28672;49.358;8.780;2022-11-15T11:01:46;12.40;99.90
43047;DHT22;28672;49.358;8.780;2022-11-15T11:04:12;12.40;99.90
43047;DHT22;28672;49.358;8.780;2022-11-15T11:11:54;12.70;99.90
43047;DHT22;28672;49.358;8.780;2022-11-15T11:20:21;13.00;99.90
43047;DHT22;28672;49.358;8.780;2022-11-15T11:25:40;13.30;99.90
43047;DHT22;28672;49.358;8.780;2022-11-15T11:34:19;13.80;99.90
43047;DHT22;28672;49.358;8.780;2022-11-15T11:42:53;14.10;99.90
43047;DHT22;28672;49.358;8.780;2022-11-15T11:48:14;14.20;99.90
43047;DHT22;28672;49.358;8.780;2022-11-15T11:50:42;14.30;99.90
43047;DHT22;28672;49.358;8.780;2022-11-15T11:53:30;14.00;99.90
43047;DHT22;28672;49.358;8.780;2022-11-15T11:56:02;13.90;99.90
43047;DHT22;28672;49.358;8.780;2022-11-15T11:58:43;13.90;99.90
43047;DHT22;28672;49.358;8.780;2022-11-15T12:01:29;13.80;99.90
43047;DHT22;28672;49.358;8.780;2022-11-15T12:04:16;13.70;99.90
43047;DHT22;28672;49.358;8.780;2022-11-15T12:12:09;13.70;99.90
43047;DHT22;28672;49.358;8.780;2022-11-15T12:17:12;13.80;99.90
43047;DHT22;28672;49.358;8.780;2022-11-15T12:19:39;13.70;99.90
43047;DHT22;28672;49.358;8.780;2022-11-15T12:24:44;13.70;99.90
43047;DHT22;28672;49.358;8.780;2022-11-15T12:27:16;13.70;99.90
43047;DHT22;28672;49.358;8.780;2022-11-15T12:29:51;13.70;99.90
43047;DHT22;28672;49.358;8.780;2022-11-15T12:32:37;13.60;99.90
43047;DHT22;28672;49.358;8.780;2022-11-15T12:35:06;13.60;99.90
43047;DHT22;28672;49.358;8.780;2022-11-15T12:37:49;13.60;99.90
43047;DHT22;28672;49.358;8.780;2022-11-15T12:40:34;13.60;99.90
43047;DHT22;28672;49.358;8.780;2022-11-15T12:45:45;13.70;99.90
43047;DHT22;28672;49.358;8.780;2022-11-15T13:01:08;13.60;99.90
43047;DHT22;28672;49.358;8.780;2022-11-15T13:03:34;13.50;99.90
43047;DHT22;28672;49.358;8.780;2022-11-15T13:06:03;13.50;99.90
43047;DHT22;28672;49.358;8.780;2022-11-15T13:08:43;13.60;99.90
43047;DHT22;28672;49.358;8.780;2022-11-15T13:11:48;13.60;99.90
43047;DHT22;28672;49.358;8.780;2022-11-15T13:19:47;13.50;99.90
43047;DHT22;28672;49.358;8.780;2022-11-15T13:22:13;13.50;99.90
43047;DHT22;28672;49.358;8.780;2022-11-15T13:24:59;13.60;99.90
43047;DHT22;28672;49.358;8.780;2022-11-15T13:27:26;13.50;99.90
43047;DHT22;28672;49.358;8.780;2022-11-15T13:29:52;13.50;99.90
43047;DHT22;28672;49.358;8.780;2022-11-15T13:32:18;13.50;99.90
43047;DHT22;28672;49.358;8.780;2022-11-15T13:34:45;13.60;99.90
43047;DHT22;28672;49.358;8.780;2022-11-15T13:39:48;13.50;99.90
43047;DHT22;28672;49.358;8.780;2022-11-15T13:42:19;13.50;99.90
43047;DHT22;28672;49.358;8.780;2022-11-15T13:44:59;13.50;99.90
43047;DHT22;28672;49.358;8.780;2022-11-15T13:47:27;13.60;99.90
43047;DHT22;28672;49.358;8.780;2022-11-15T13:49:53;13.60;99.90
43047;DHT22;28672;49.358;8.780;2022-11-15T13:52:19;13.60;99.90
43047;DHT22;28672;49.358;8.780;2022-11-15T13:55:02;13.60;99.90
43047;DHT22;28672;49.358;8.780;2022-11-15T13:57:52;13.50;99.90
43047;DHT22;28672;49.358;8.780;2022-11-15T14:02:54;13.60;99.90
43047;DHT22;28672;49.358;8.780;2022-11-15T14:05:22;13.70;99.90
43047;DHT22;28672;49.358;8.780;2022-11-15T14:07:57;13.70;99.90
43047;DHT22;28672;49.358;8.780;2022-11-15T14:10:32;13.80;99.90
43047;DHT22;28672;49.358;8.780;2022-11-15T14:12:58;13.90;99.90
43047;DHT22;28672;49.358;8.780;2022-11-15T14:15:31;13.90;99.90
43047;DHT22;28672;49.358;8.780;2022-11-15T14:17:57;13.80;99.90
43047;DHT22;28672;49.358;8.780;2022-11-15T14:22:54;13.60;99.90
43047;DHT22;28672;49.358;8.780;2022-11-15T14:25:23;13.60;99.90
43047;DHT22;28672;49.358;8.780;2022-11-15T14:30:46;13.50;99.90
43047;DHT22;28672;49.358;8.780;2022-11-15T14:35:51;13.30;99.90
43047;DHT22;28672;49.358;8.780;2022-11-15T14:38:16;13.20;99.90
43047;DHT22;28672;49.358;8.780;2022-11-15T14:40:42;13.10;99.90
43047;DHT22;28672;49.358;8.780;2022-11-15T14:43:10;13.10;99.90
43047;DHT22;28672;49.358;8.780;2022-11-15T14:45:36;13.00;99.90
43047;DHT22;28672;49.358;8.780;2022-11-15T14:48:02;13.00;99.90
43047;DHT22;28672;49.358;8.780;2022-11-15T14:50:28;12.90;99.90
43047;DHT22;28672;49.358;8.780;2022-11-15T14:52:54;13.00;99.90
43047;DHT22;28672;49.358;8.780;2022-11-15T14:55:23;12.90;99.90
43047;DHT22;28672;49.358;8.780;2022-11-15T14:57:50;12.90;99.90
43047;DHT22;28672;49.358;8.780;2022-11-15T15:00:16;12.80;99.90
43047;DHT22;28672;49.358;8.780;2022-11-15T15:02:43;12.80;99.90
43047;DHT22;28672;49.358;8.780;2022-11-15T15:05:18;12.70;99.90
43047;DHT22;28672;49.358;8.780;2022-11-15T15:07:44;12.70;99.90
43047;DHT22;28672;49.358;8.780;2022-11-15T15:10:11;12.60;99.90
43047;DHT22;28672;49.358;8.780;2022-11-15T15:12:37;12.60;99.90
43047;DHT22;28672;49.358;8.780;2022-11-15T15:15:03;12.50;99.90
43047;DHT22;28672;49.358;8.780;2022-11-15T15:17:29;12.50;99.90
43047;DHT22;28672;49.358;8.780;2022-11-15T15:19:54;12.50;99.90
43047;DHT22;28672;49.358;8.780;2022-11-15T15:22:20;12.40;99.90
43047;DHT22;28672;49.358;8.780;2022-11-15T15:24:51;12.40;99.90
43047;DHT22;28672;49.358;8.780;2022-11-15T15:27:16;12.40;99.90
43047;DHT22;28672;49.358;8.780;2022-11-15T15:29:43;12.30;99.90
43047;DHT22;28672;49.358;8.780;2022-11-15T15:32:10;12.30;99.90
43047;DHT22;28672;49.358;8.780;2022-11-15T15:34:36;12.20;99.90
43047;DHT22;28672;49.358;8.780;2022-11-15T15:39:48;12.10;99.90
43047;DHT22;28672;49.358;8.780;2022-11-15T15:42:13;12.00;99.90
43047;DHT22;28672;49.358;8.780;2022-11-15T15:44:39;12.00;99.90
43047;DHT22;28672;49.358;8.780;2022-11-15T15:47:14;11.90;99.90
43047;DHT22;28672;49.358;8.780;2022-11-15T15:49:41;11.80;99.90
43047;DHT22;28672;49.358;8.780;2022-11-15T15:52:06;11.80;99.90
43047;DHT22;28672;49.358;8.780;2022-11-15T15:54:32;11.70;99.90
43047;DHT22;28672;49.358;8.780;2022-11-15T15:56:57;11.70;99.90
43047;DHT22;28672;49.358;8.780;2022-11-15T15:59:23;11.70;99.90
43047;DHT22;28672;49.358;8.780;2022-11-15T16:01:49;11.60;99.90
43047;DHT22;28672;49.358;8.780;2022-11-15T16:04:14;11.60;99.90
43047;DHT22;28672;49.358;8.780;2022-11-15T16:06:40;11.60;99.90
43047;DHT22;28672;49.358;8.780;2022-11-15T16:09:17;11.50;99.90
43047;DHT22;28672;49.358;8.780;2022-11-15T16:11:46;11.50;99.90
43047;DHT22;28672;49.358;8.780;2022-11-15T16:14:12;11.50;99.90
43047;DHT22;28672;49.358;8.780;2022-11-15T16:16:38;11.50;99.90
43047;DHT22;28672;49.358;8.780;2022-11-15T16:19:04;11.40;99.90
43047;DHT22;28672;49.358;8.780;2022-11-15T16:21:30;11.40;99.90
43047;DHT22;28672;49.358;8.780;2022-11-15T16:23:55;11.40;99.90
43047;DHT22;28672;49.358;8.780;2022-11-15T16:26:25;11.40;99.90
43047;DHT22;28672;49.358;8.780;2022-11-15T16:28:51;11.40;99.90
43047;DHT22;28672;49.358;8.780;2022-11-15T16:31:17;11.30;99.90
43047;DHT22;28672;49.358;8.780;2022-11-15T16:33:45;11.30;99.90
43047;DHT22;28672;49.358;8.780;2022-11-15T16:36:26;11.30;99.90
43047;DHT22;28672;49.358;8.780;2022-11-15T16:38:52;11.30;99.90
43047;DHT22;28672;49.358;8.780;2022-11-15T16:41:18;11.30;99.90
43047;DHT22;28672;49.358;8.780;2022-11-15T16:43:50;11.30;99.90
43047;DHT22;28672;49.358;8.780;2022-11-15T16:46:24;11.20;99.90
43047;DHT22;28672;49.358;8.780;2022-11-15T16:48:50;11.20;99.90
43047;DHT22;28672;49.358;8.780;2022-11-15T16:51:16;11.20;99.90
43047;DHT22;28672;49.358;8.780;2022-11-15T16:53:42;11.10;99.90
43047;DHT22;28672;49.358;8.780;2022-11-15T16:58:49;11.20;99.90
43047;DHT22;28672;49.358;8.780;2022-11-15T17:01:27;11.10;99.90
43047;DHT22;28672;49.358;8.780;2022-11-15T17:03:53;11.10;99.90
43047;DHT22;28672;49.358;8.780;2022-11-15T17:06:19;11.10;99.90
43047;DHT22;28672;49.358;8.780;2022-11-15T17:08:46;11.10;99.90
43047;DHT22;28672;49.358;8.780;2022-11-15T17:11:17;11.10;99.90
43047;DHT22;28672;49.358;8.780;2022-11-15T17:13:44;11.10;99.90
43047;DHT22;28672;49.358;8.780;2022-11-15T17:16:12;11.10;99.90
43047;DHT22;28672;49.358;8.780;2022-11-15T17:18:39;11.00;99.90
43047;DHT22;28672;49.358;8.780;2022-11-15T17:21:11;11.00;99.90
43047;DHT22;28672;49.358;8.780;2022-11-15T17:23:37;11.00;99.90
43047;DHT22;28672;49.358;8.780;2022-11-15T17:26:03;11.00;99.90
43047;DHT22;28672;49.358;8.780;2022-11-15T17:28:31;11.00;99.90
43047;DHT22;28672;49.358;8.780;2022-11-15T17:30:57;11.00;99.90
43047;DHT22;28672;49.358;8.780;2022-11-15T17:33:22;10.90;99.90
43047;DHT22;28672;49.358;8.780;2022-11-15T17:35:59;11.00;99.90
43047;DHT22;28672;49.358;8.780;2022-11-15T17:38:26;10.90;99.90
43047;DHT22;28672;49.358;8.780;2022-11-15T17:41:03;10.90;99.90
43047;DHT22;28672;49.358;8.780;2022-11-15T17:43:30;10.90;99.90
43047;DHT22;28672;49.358;8.780;2022-11-15T17:45:57;10.90;99.90
43047;DHT22;28672;49.358;8.780;2022-11-15T17:48:23;10.90;99.90
43047;DHT22;28672;49.358;8.780;2022-11-15T17:53:22;10.90;99.90